createdAt,value
2023-02-23T00:02:08.984Z,18.10
2023-02-23T00:04:38.174Z,16.60
2023-02-23T00:07:06.507Z,17.00
2023-02-23T00:09:37.868Z,16.10
2023-02-23T00:12:09.778Z,17.40
2023-02-23T00:14:38.793Z,18.00
2023-02-23T00:17:14.382Z,18.90
2023-02-23T00:19:45.968Z,18.50
2023-02-23T00:22:14.064Z,18.10
2023-02-23T00:24:47.407Z,17.10
2023-02-23T00:27:20.124Z,17.70
2023-02-23T00:29:49.611Z,17.00
2023-02-23T00:32:21.916Z,17.00
2023-02-23T00:34:52.402Z,16.90
2023-02-23T00:37:22.470Z,15.70
2023-02-23T00:39:51.763Z,15.80
2023-02-23T00:42:20.812Z,15.80
2023-02-23T00:44:49.842Z,14.80
2023-02-23T00:47:18.147Z,14.40
2023-02-23T00:49:46.778Z,15.60
2023-02-23T00:52:14.961Z,14.20
2023-02-23T00:54:43.320Z,15.20
2023-02-23T00:57:11.467Z,16.00
2023-02-23T00:59:39.628Z,14.70
2023-02-23T01:02:07.811Z,13.90
2023-02-23T01:04:36.051Z,13.30
2023-02-23T01:07:06.482Z,12.80
2023-02-23T01:09:35.158Z,12.70
2023-02-23T01:12:07.554Z,12.30
2023-02-23T01:14:38.134Z,13.80
2023-02-23T01:17:07.480Z,12.60
2023-02-23T01:19:37.625Z,12.60
2023-02-23T01:22:05.777Z,12.50
2023-02-23T01:24:33.934Z,13.50
2023-02-23T01:27:05.706Z,14.30
2023-02-23T01:29:35.301Z,14.20
2023-02-23T01:32:05.032Z,13.60
2023-02-23T01:34:33.429Z,15.00
2023-02-23T01:37:01.585Z,13.30
2023-02-23T01:39:32.568Z,11.60
2023-02-23T01:42:00.654Z,12.90
2023-02-23T01:44:31.498Z,12.80
2023-02-23T01:46:59.645Z,12.60
2023-02-23T01:49:32.842Z,11.40
2023-02-23T01:54:38.797Z,10.80
2023-02-23T01:57:11.688Z,12.30
2023-02-23T01:59:49.300Z,12.60
2023-02-23T02:02:21.962Z,12.60
2023-02-23T02:04:52.360Z,12.60
2023-02-23T02:07:25.929Z,12.30
2023-02-23T02:10:38.673Z,12.10
2023-02-23T02:13:10.466Z,10.90
2023-02-23T02:16:15.947Z,12.10
2023-02-23T02:19:06.093Z,11.20
2023-02-23T02:21:41.670Z,12.90
2023-02-23T02:25:11.798Z,11.60
2023-02-23T02:27:58.271Z,10.80
2023-02-23T02:31:06.634Z,10.60
2023-02-23T02:34:00.244Z,10.80
2023-02-23T02:37:15.435Z,10.10
2023-02-23T02:39:53.534Z,9.50
2023-02-23T02:43:08.784Z,9.80
2023-02-23T02:45:51.160Z,8.70
2023-02-23T02:48:45.551Z,10.90
2023-02-23T02:51:26.058Z,10.20
2023-02-23T02:54:11.044Z,11.00
2023-02-23T03:08:29.637Z,12.70
2023-02-23T03:11:30.233Z,12.60
2023-02-23T03:14:50.144Z,12.80
2023-02-23T03:17:58.615Z,12.70
2023-02-23T03:20:52.876Z,12.20
2023-02-23T03:24:08.611Z,14.00
2023-02-23T03:27:03.188Z,13.20
2023-02-23T03:30:31.317Z,12.90
2023-02-23T03:33:28.597Z,12.30
2023-02-23T03:36:30.037Z,11.70
2023-02-23T03:39:30.290Z,11.60
2023-02-23T03:42:21.222Z,11.90
2023-02-23T03:45:10.416Z,12.10
2023-02-23T03:48:00.425Z,13.00
2023-02-23T03:51:12.140Z,11.90
2023-02-23T03:54:30.782Z,11.80
2023-02-23T03:57:23.307Z,12.20
2023-02-23T04:00:17.431Z,13.20
2023-02-23T04:03:08.856Z,13.90
2023-02-23T04:05:59.975Z,14.20
2023-02-23T04:08:54.641Z,13.90
2023-02-23T04:12:20.430Z,12.20
2023-02-23T04:15:07.047Z,10.70
2023-02-23T04:17:35.500Z,11.20
2023-02-23T04:20:04.641Z,10.60
2023-02-23T04:22:32.911Z,12.50
2023-02-23T04:25:01.402Z,13.90
2023-02-23T04:27:29.485Z,13.00
2023-02-23T04:29:58.236Z,12.00
2023-02-23T04:32:26.422Z,12.20
2023-02-23T04:34:55.056Z,12.30
2023-02-23T04:37:23.126Z,12.70
2023-02-23T04:39:51.412Z,12.90
2023-02-23T04:42:19.723Z,13.90
2023-02-23T04:44:47.809Z,13.80
2023-02-23T04:47:17.236Z,14.30
2023-02-23T04:49:45.420Z,13.50
2023-02-23T04:52:13.561Z,13.00
2023-02-23T04:54:41.870Z,13.50
2023-02-23T04:57:10.420Z,14.90
2023-02-23T04:59:38.526Z,13.30
2023-02-23T05:02:06.618Z,14.40
2023-02-23T05:04:35.495Z,14.30
2023-02-23T05:07:05.256Z,15.00
2023-02-23T05:09:33.415Z,16.30
2023-02-23T05:12:01.943Z,15.10
2023-02-23T05:14:30.106Z,16.10
2023-02-23T05:16:58.260Z,15.20
2023-02-23T05:19:26.460Z,17.10
2023-02-23T05:21:54.627Z,16.50
2023-02-23T05:24:22.684Z,18.10
2023-02-23T05:26:50.832Z,15.80
2023-02-23T05:29:19.324Z,15.30
2023-02-23T05:31:48.819Z,15.10
2023-02-23T05:34:17.049Z,14.20
2023-02-23T05:36:45.167Z,14.80
2023-02-23T05:39:13.369Z,15.40
2023-02-23T05:41:41.558Z,14.30
2023-02-23T05:44:09.811Z,15.20
2023-02-23T05:46:38.727Z,15.60
2023-02-23T05:49:06.844Z,16.00
2023-02-23T05:51:35.187Z,15.50
2023-02-23T05:54:03.373Z,15.20
2023-02-23T05:56:32.076Z,13.70
2023-02-23T05:59:00.272Z,15.20
2023-02-23T06:01:28.473Z,17.60
2023-02-23T06:03:57.320Z,15.70
2023-02-23T06:06:25.809Z,15.60
2023-02-23T06:08:54.461Z,15.90
2023-02-23T06:11:23.043Z,16.60
2023-02-23T06:13:51.159Z,17.00
2023-02-23T06:16:19.616Z,20.10
2023-02-23T06:18:47.774Z,16.20
2023-02-23T06:21:16.045Z,15.80
2023-02-23T06:23:44.200Z,16.80
2023-02-23T06:26:12.303Z,19.20
2023-02-23T06:28:40.422Z,18.60
2023-02-23T06:31:08.765Z,19.80
2023-02-23T06:33:37.149Z,18.80
2023-02-23T06:36:05.703Z,19.60
2023-02-23T06:38:33.889Z,19.90
2023-02-23T06:41:11.811Z,19.60
2023-02-23T06:43:39.972Z,24.60
2023-02-23T06:46:08.584Z,27.60
2023-02-23T06:48:36.926Z,25.00
2023-02-23T06:51:05.317Z,25.70
2023-02-23T06:53:33.902Z,24.80
2023-02-23T06:56:03.605Z,27.10
2023-02-23T06:58:31.870Z,25.40
2023-02-23T07:00:59.979Z,23.60
2023-02-23T07:03:28.185Z,24.30
2023-02-23T07:05:56.388Z,22.10
2023-02-23T07:08:24.543Z,22.90
2023-02-23T07:10:52.686Z,22.00
2023-02-23T07:13:21.986Z,25.10
2023-02-23T07:15:50.879Z,24.90
2023-02-23T07:18:19.144Z,23.20
2023-02-23T07:20:47.328Z,23.10
2023-02-23T07:23:15.443Z,26.30
2023-02-23T07:25:43.654Z,29.30
2023-02-23T07:28:14.687Z,26.40
2023-02-23T07:30:43.127Z,30.00
2023-02-23T07:33:11.384Z,27.30
2023-02-23T07:35:39.529Z,26.80
2023-02-23T07:38:07.710Z,24.80
2023-02-23T07:40:35.814Z,24.30
2023-02-23T07:43:03.964Z,25.10
2023-02-23T07:45:32.218Z,22.60
2023-02-23T07:48:00.618Z,23.20
2023-02-23T07:50:28.874Z,22.40
2023-02-23T07:52:57.039Z,22.70
2023-02-23T07:55:25.154Z,20.70
2023-02-23T07:57:53.599Z,19.50
2023-02-23T08:00:22.068Z,20.30
2023-02-23T08:02:50.138Z,20.10
2023-02-23T08:05:18.338Z,22.40
2023-02-23T08:07:46.562Z,17.80
2023-02-23T08:10:14.679Z,17.80
2023-02-23T08:12:43.459Z,16.30
2023-02-23T08:15:12.189Z,16.00
2023-02-23T08:17:40.679Z,16.10
2023-02-23T08:20:10.013Z,21.50
2023-02-23T08:22:48.990Z,15.80
2023-02-23T08:25:18.356Z,18.90
2023-02-23T08:27:47.524Z,18.40
2023-02-23T08:30:16.707Z,18.50
2023-02-23T08:32:45.461Z,13.50
2023-02-23T08:35:14.524Z,19.10
2023-02-23T08:37:42.702Z,16.50
2023-02-23T08:40:12.607Z,14.50
2023-02-23T08:42:41.478Z,16.30
2023-02-23T08:45:11.259Z,15.90
2023-02-23T08:47:39.340Z,14.10
2023-02-23T08:50:10.968Z,16.60
2023-02-23T08:52:39.920Z,15.20
2023-02-23T08:55:11.696Z,15.10
2023-02-23T08:57:39.989Z,14.80
2023-02-23T09:00:14.219Z,13.30
2023-02-23T09:02:44.378Z,12.70
2023-02-23T09:05:12.811Z,15.50
2023-02-23T09:07:44.977Z,13.20
2023-02-23T09:10:20.235Z,13.90
2023-02-23T09:12:48.397Z,13.80
2023-02-23T09:15:16.626Z,14.80
2023-02-23T09:17:45.065Z,14.50
2023-02-23T09:20:15.864Z,11.30
2023-02-23T09:22:48.761Z,10.60
2023-02-23T09:25:22.854Z,12.30
2023-02-23T09:27:59.798Z,10.80
2023-02-23T09:30:28.117Z,11.60
2023-02-23T09:32:56.505Z,10.00
2023-02-23T09:35:25.208Z,12.60
2023-02-23T09:37:56.218Z,12.20
2023-02-23T09:40:30.369Z,11.90
2023-02-23T09:43:12.524Z,10.50
2023-02-23T09:45:57.650Z,12.10
2023-02-23T09:48:28.656Z,12.30
2023-02-23T09:50:59.867Z,12.40
2023-02-23T09:53:48.000Z,11.10
2023-02-23T09:56:38.777Z,10.40
2023-02-23T09:59:13.959Z,9.80
2023-02-23T10:01:48.077Z,10.60
2023-02-23T10:04:22.467Z,10.40
2023-02-23T10:07:27.958Z,10.20
2023-02-23T10:10:28.381Z,7.70
2023-02-23T10:14:02.816Z,8.20
2023-02-23T10:16:49.075Z,8.00
2023-02-23T10:19:32.372Z,7.20
2023-02-23T10:22:07.678Z,7.50
2023-02-23T10:25:00.742Z,8.70
2023-02-23T10:27:47.564Z,8.90
2023-02-23T10:30:31.739Z,8.60
2023-02-23T10:33:17.095Z,8.20
2023-02-23T10:35:45.794Z,9.40
2023-02-23T10:38:19.483Z,8.90
2023-02-23T10:40:55.377Z,9.20
2023-02-23T10:43:23.521Z,8.70
2023-02-23T10:45:53.804Z,8.40
2023-02-23T10:48:27.026Z,8.60
2023-02-23T10:51:02.868Z,8.90
2023-02-23T10:53:36.585Z,8.20
2023-02-23T10:56:14.611Z,8.70
2023-02-23T10:58:49.755Z,8.00
2023-02-23T11:02:00.440Z,7.40
2023-02-23T11:04:33.238Z,7.50
2023-02-23T11:07:08.697Z,7.60
2023-02-23T11:09:46.410Z,7.30
2023-02-23T11:12:25.336Z,7.40
2023-02-23T11:14:56.946Z,7.50
2023-02-23T11:17:29.647Z,10.60
2023-02-23T11:20:18.873Z,7.60
2023-02-23T11:22:47.307Z,6.20
2023-02-23T11:25:44.998Z,6.60
2023-02-23T11:28:20.954Z,6.70
2023-02-23T11:30:50.043Z,6.60
2023-02-23T11:33:25.495Z,6.50
2023-02-23T11:36:36.057Z,5.10
2023-02-23T11:39:19.794Z,6.20
2023-02-23T11:42:05.275Z,5.50
2023-02-23T11:44:33.701Z,5.50
2023-02-23T11:47:03.690Z,6.20
2023-02-23T11:49:36.534Z,6.00
2023-02-23T11:52:15.713Z,6.50
2023-02-23T11:54:59.378Z,6.60
2023-02-23T11:57:31.084Z,6.60
2023-02-23T12:00:02.726Z,6.00
2023-02-23T12:02:58.648Z,6.00
2023-02-23T12:05:31.920Z,5.90
2023-02-23T12:10:43.662Z,6.50
2023-02-23T12:13:28.152Z,5.60
2023-02-23T12:16:15.651Z,6.00
2023-02-23T12:18:46.892Z,5.90
2023-02-23T12:21:28.802Z,6.40
2023-02-23T12:24:35.048Z,5.90
2023-02-23T12:27:39.233Z,6.60
2023-02-23T12:30:19.966Z,6.30
2023-02-23T12:32:58.009Z,5.20
2023-02-23T12:35:31.416Z,6.50
2023-02-23T12:38:15.401Z,6.20
2023-02-23T12:40:44.883Z,5.40
2023-02-23T12:43:32.543Z,7.10
2023-02-23T12:46:13.049Z,7.60
2023-02-23T12:49:06.067Z,6.60
2023-02-23T12:51:42.645Z,7.50
2023-02-23T12:54:15.846Z,6.50
2023-02-23T12:57:23.770Z,5.80
2023-02-23T13:00:10.302Z,5.80
2023-02-23T13:02:52.756Z,5.70
2023-02-23T13:05:30.343Z,5.70
2023-02-23T13:08:25.691Z,6.80
2023-02-23T13:11:24.224Z,7.00
2023-02-23T13:14:04.850Z,6.70
2023-02-23T13:16:40.649Z,5.80
2023-02-23T13:19:34.496Z,6.00
2023-02-23T13:22:55.166Z,6.30
2023-02-23T13:25:47.920Z,5.80
2023-02-23T13:28:56.592Z,5.50
2023-02-23T13:31:35.158Z,6.50
2023-02-23T13:34:10.029Z,6.00
2023-02-23T13:36:40.689Z,6.10
2023-02-23T13:39:32.754Z,6.70
2023-02-23T13:43:09.744Z,6.00
2023-02-23T13:46:29.089Z,10.80
2023-02-23T13:49:06.296Z,8.30
2023-02-23T13:51:54.813Z,6.40
2023-02-23T13:54:33.609Z,7.30
2023-02-23T13:57:12.201Z,6.90
2023-02-23T13:59:47.669Z,6.70
2023-02-23T14:02:40.843Z,6.60
2023-02-23T14:05:45.871Z,6.50
2023-02-23T14:08:46.029Z,7.30
2023-02-23T14:11:41.275Z,6.60
2023-02-23T14:14:14.475Z,7.40
2023-02-23T14:16:44.393Z,6.90
2023-02-23T14:19:41.668Z,7.70
2023-02-23T14:22:18.565Z,7.60
2023-02-23T14:24:46.651Z,6.60
2023-02-23T14:27:41.423Z,6.90
2023-02-23T14:30:21.582Z,6.50
2023-02-23T14:32:51.144Z,7.50
2023-02-23T14:35:34.540Z,7.00
2023-02-23T14:40:42.168Z,6.60
2023-02-23T14:43:42.068Z,6.70
2023-02-23T14:46:25.352Z,8.20
2023-02-23T14:51:55.210Z,7.30
2023-02-23T14:54:40.975Z,7.00
2023-02-23T14:57:23.929Z,7.20
2023-02-23T15:00:05.585Z,8.00
2023-02-23T15:02:35.479Z,9.60
2023-02-23T15:07:50.577Z,6.90
2023-02-23T15:10:28.415Z,8.80
2023-02-23T15:12:57.540Z,8.20
2023-02-23T15:15:27.153Z,8.00
2023-02-23T15:18:01.184Z,8.30
2023-02-23T15:23:05.811Z,8.60
2023-02-23T15:25:40.715Z,7.80
2023-02-23T15:28:23.595Z,8.60
2023-02-23T15:31:00.248Z,9.00
2023-02-23T15:33:28.881Z,10.60
2023-02-23T15:36:20.863Z,8.90
2023-02-23T15:38:55.142Z,9.40
2023-02-23T15:41:36.938Z,9.60
2023-02-23T15:44:22.777Z,10.10
2023-02-23T15:47:16.742Z,9.70
2023-02-23T15:49:44.871Z,10.40
2023-02-23T15:52:20.651Z,9.90
2023-02-23T15:55:01.592Z,10.10
2023-02-23T15:57:33.745Z,10.50
2023-02-23T16:00:16.411Z,10.20
2023-02-23T16:02:44.832Z,9.90
2023-02-23T16:05:22.802Z,9.50
2023-02-23T16:08:25.824Z,11.30
2023-02-23T16:11:12.760Z,11.50
2023-02-23T16:13:49.590Z,12.40
2023-02-23T16:16:25.550Z,12.30
2023-02-23T16:19:01.574Z,14.00
2023-02-23T16:21:31.822Z,16.00
2023-02-23T16:24:08.978Z,16.40
2023-02-23T16:26:47.317Z,27.80
2023-02-23T16:29:22.497Z,23.10
2023-02-23T16:31:58.187Z,19.30
2023-02-23T16:34:37.236Z,19.40
2023-02-23T16:37:23.070Z,18.10
2023-02-23T16:39:52.285Z,17.90
2023-02-23T16:42:32.232Z,17.80
2023-02-23T16:45:02.088Z,19.80
2023-02-23T16:47:36.546Z,17.80
2023-02-23T16:50:32.593Z,21.80
2023-02-23T16:53:02.148Z,19.70
2023-02-23T16:55:30.992Z,19.70
2023-02-23T16:58:04.017Z,18.80
2023-02-23T17:00:33.386Z,18.60
2023-02-23T17:03:02.155Z,17.70
2023-02-23T17:05:30.531Z,16.80
2023-02-23T17:07:59.106Z,15.80
2023-02-23T17:10:34.559Z,16.80
2023-02-23T17:13:15.716Z,16.30
2023-02-23T17:15:51.753Z,19.90
2023-02-23T17:21:03.361Z,21.80
2023-02-23T17:23:51.163Z,19.50
2023-02-23T17:26:26.019Z,22.80
2023-02-23T17:28:54.482Z,35.60
2023-02-23T17:31:25.637Z,66.90
2023-02-23T17:33:55.465Z,66.60
2023-02-23T17:36:24.032Z,51.60
2023-02-23T17:38:58.480Z,35.90
2023-02-23T17:41:27.363Z,34.90
2023-02-23T17:43:55.519Z,35.50
2023-02-23T17:46:24.141Z,33.40
2023-02-23T17:48:53.960Z,32.40
2023-02-23T17:51:23.525Z,29.00
2023-02-23T17:53:51.906Z,30.30
2023-02-23T17:56:20.426Z,28.50
2023-02-23T17:58:48.618Z,31.40
2023-02-23T18:01:17.849Z,32.30
2023-02-23T18:03:47.832Z,28.00
2023-02-23T18:06:17.053Z,29.80
2023-02-23T18:08:45.467Z,27.70
2023-02-23T18:11:17.469Z,28.50
2023-02-23T18:13:47.802Z,31.20
2023-02-23T18:16:16.334Z,28.10
2023-02-23T18:18:47.828Z,29.10
2023-02-23T18:21:20.838Z,28.60
2023-02-23T18:23:50.318Z,28.20
2023-02-23T18:26:22.675Z,26.60
2023-02-23T18:28:51.369Z,33.20
2023-02-23T18:31:28.069Z,35.20
2023-02-23T18:33:58.091Z,35.50
2023-02-23T18:36:35.267Z,36.80
2023-02-23T18:39:07.163Z,34.40
2023-02-23T18:41:35.741Z,36.70
2023-02-23T18:44:07.516Z,36.30
2023-02-23T18:46:36.164Z,35.30
2023-02-23T18:49:06.053Z,34.50
2023-02-23T18:51:34.287Z,36.00
2023-02-23T18:54:03.487Z,36.40
2023-02-23T18:56:31.649Z,36.60
2023-02-23T18:59:01.650Z,40.80
2023-02-23T19:01:37.589Z,44.30
2023-02-23T19:04:08.380Z,42.00
2023-02-23T19:06:39.406Z,37.20
2023-02-23T19:09:10.386Z,34.50
2023-02-23T19:11:39.256Z,32.40
2023-02-23T19:14:16.120Z,31.40
2023-02-23T19:16:46.800Z,32.00
2023-02-23T19:19:15.644Z,32.00
2023-02-23T19:21:43.802Z,32.10
2023-02-23T19:24:11.898Z,33.90
2023-02-23T19:26:40.729Z,33.80
2023-02-23T19:29:08.998Z,33.90
2023-02-23T19:31:37.610Z,36.70
2023-02-23T19:34:08.921Z,34.70
2023-02-23T19:36:37.188Z,35.70
2023-02-23T19:39:10.733Z,32.00
2023-02-23T19:41:40.222Z,32.60
2023-02-23T19:44:09.926Z,31.00
2023-02-23T19:46:39.921Z,33.30
2023-02-23T19:49:08.661Z,35.10
2023-02-23T19:51:36.810Z,30.80
2023-02-23T19:54:06.522Z,32.80
2023-02-23T19:56:34.891Z,34.50
2023-02-23T19:59:03.951Z,34.90
2023-02-23T20:01:32.250Z,35.50
2023-02-23T20:04:06.705Z,36.00
2023-02-23T20:06:44.457Z,38.30
2023-02-23T20:09:14.348Z,42.50
2023-02-23T20:11:42.674Z,40.40
2023-02-23T20:14:12.393Z,41.30
2023-02-23T20:16:40.830Z,39.50
2023-02-23T20:19:09.213Z,39.70
2023-02-23T20:21:37.787Z,39.20
2023-02-23T20:24:06.304Z,40.30
2023-02-23T20:26:37.015Z,38.40
2023-02-23T20:29:10.720Z,42.10
2023-02-23T20:31:41.953Z,37.30
2023-02-23T20:34:12.047Z,37.80
2023-02-23T20:36:40.257Z,37.30
2023-02-23T20:39:10.577Z,36.70
2023-02-23T20:41:43.989Z,40.00
2023-02-23T20:44:14.469Z,44.90
2023-02-23T20:46:44.158Z,58.30
2023-02-23T20:49:12.918Z,57.30
2023-02-23T20:51:44.129Z,56.40
2023-02-23T20:54:13.664Z,81.40
2023-02-23T20:56:42.865Z,132.80
2023-02-23T20:59:12.186Z,94.70
2023-02-23T21:01:42.581Z,60.00
2023-02-23T21:04:13.001Z,48.00
2023-02-23T21:06:41.278Z,42.10
2023-02-23T21:09:17.839Z,40.50
2023-02-23T21:11:47.989Z,38.50
2023-02-23T21:14:17.516Z,38.20
2023-02-23T21:16:46.514Z,37.90
2023-02-23T21:19:17.234Z,38.10
2023-02-23T21:21:49.395Z,36.30
2023-02-23T21:24:19.102Z,38.60
2023-02-23T21:26:47.941Z,39.20
2023-02-23T21:29:16.692Z,36.40
2023-02-23T21:31:46.725Z,37.50
2023-02-23T21:34:21.137Z,37.90
2023-02-23T21:36:49.929Z,37.50
2023-02-23T21:39:18.157Z,37.50
2023-02-23T21:41:46.286Z,38.00
2023-02-23T21:44:14.424Z,38.50
2023-02-23T21:46:42.695Z,38.30
2023-02-23T21:49:10.921Z,37.10
2023-02-23T21:51:39.698Z,37.20
2023-02-23T21:54:08.078Z,39.30
2023-02-23T21:56:36.896Z,38.60
2023-02-23T21:59:08.249Z,39.20
2023-02-23T22:01:39.647Z,37.60
2023-02-23T22:04:11.279Z,40.40
2023-02-23T22:06:43.298Z,40.80
2023-02-23T22:09:12.650Z,43.10
2023-02-23T22:11:45.577Z,39.80
2023-02-23T22:14:16.668Z,40.60
2023-02-23T22:16:45.612Z,39.50
2023-02-23T22:19:13.845Z,40.30
2023-02-23T22:21:43.466Z,39.50
2023-02-23T22:24:13.915Z,41.40
2023-02-23T22:26:53.829Z,39.10
2023-02-23T22:29:25.153Z,38.70
2023-02-23T22:31:53.478Z,39.90
2023-02-23T22:34:22.104Z,41.50
2023-02-23T22:36:50.578Z,38.40
2023-02-23T22:39:19.180Z,39.50
2023-02-23T22:41:48.402Z,38.80
2023-02-23T22:44:21.365Z,40.90
2023-02-23T22:46:49.670Z,40.70
2023-02-23T22:49:19.941Z,38.50
2023-02-23T22:51:48.472Z,38.50
2023-02-23T22:54:17.382Z,38.70
2023-02-23T22:56:46.921Z,39.20
2023-02-23T22:59:17.458Z,39.40
2023-02-23T23:01:47.546Z,37.40
2023-02-23T23:04:16.132Z,39.10
2023-02-23T23:06:44.291Z,40.90
2023-02-23T23:09:12.960Z,41.60
2023-02-23T23:11:41.829Z,42.50
2023-02-23T23:14:11.899Z,41.10
2023-02-23T23:16:48.520Z,40.30
2023-02-23T23:19:23.940Z,39.30
2023-02-23T23:22:00.371Z,37.50
2023-02-23T23:24:28.542Z,37.90
2023-02-23T23:27:00.090Z,37.40
2023-02-23T23:29:32.493Z,36.10
2023-02-23T23:32:02.604Z,36.20
2023-02-23T23:34:33.536Z,35.20
2023-02-23T23:37:02.687Z,37.60
2023-02-23T23:39:30.837Z,38.10
2023-02-23T23:42:01.781Z,38.30
2023-02-23T23:44:29.984Z,39.80
2023-02-23T23:46:58.440Z,39.80
2023-02-23T23:49:26.820Z,38.80
2023-02-23T23:51:56.705Z,38.00
2023-02-23T23:54:30.766Z,38.90
2023-02-23T23:57:05.786Z,40.80
2023-02-23T23:59:35.417Z,37.60
